createdAt,value
2023-04-05T00:02:00.901Z,4.90
2023-04-05T00:08:04.629Z,4.90
2023-04-05T00:14:06.818Z,4.90
2023-04-05T00:20:10.757Z,4.90
2023-04-05T00:26:13.331Z,5.00
2023-04-05T00:32:20.471Z,5.00
2023-04-05T00:38:22.974Z,5.00
2023-04-05T00:44:25.022Z,5.00
2023-04-05T00:50:31.166Z,5.00
2023-04-05T00:56:33.579Z,5.00
2023-04-05T01:02:50.229Z,5.10
2023-04-05T01:09:21.114Z,5.10
2023-04-05T01:15:23.862Z,5.00
2023-04-05T01:21:38.333Z,5.10
2023-04-05T01:28:07.110Z,5.20
2023-04-05T01:34:23.931Z,5.20
2023-04-05T01:40:26.346Z,5.30
2023-04-05T01:46:28.476Z,5.30
2023-04-05T01:52:31.208Z,5.40
2023-04-05T01:58:33.849Z,5.40
2023-04-05T02:04:36.261Z,5.30
2023-04-05T02:10:39.229Z,5.20
2023-04-05T02:16:41.963Z,5.10
2023-04-05T02:22:45.932Z,5.20
2023-04-05T02:28:48.501Z,5.10
2023-04-05T02:34:50.799Z,5.10
2023-04-05T02:40:52.858Z,5.20
2023-04-05T02:46:55.034Z,5.20
2023-04-05T02:53:03.194Z,5.10
2023-04-05T02:59:05.910Z,5.20
2023-04-05T03:05:09.718Z,5.20
2023-04-05T03:11:13.143Z,5.20
2023-04-05T03:17:19.165Z,5.20
2023-04-05T03:23:32.372Z,5.30
2023-04-05T03:29:36.329Z,5.40
2023-04-05T03:35:47.156Z,5.50
2023-04-05T03:41:50.917Z,5.50
2023-04-05T03:47:53.598Z,5.50
2023-04-05T03:53:56.805Z,5.50
2023-04-05T04:00:02.170Z,5.70
2023-04-05T04:06:19.221Z,5.60
2023-04-05T04:12:23.294Z,5.60
2023-04-05T04:18:32.900Z,5.60
2023-04-05T04:24:54.178Z,5.70
2023-04-05T04:31:15.522Z,5.70
2023-04-05T04:38:01.686Z,5.80
2023-04-05T04:44:28.570Z,5.90
2023-04-05T04:50:53.086Z,5.90
2023-04-05T04:56:57.609Z,6.00
2023-04-05T05:02:59.897Z,6.00
2023-04-05T05:09:02.253Z,6.00
2023-04-05T05:15:08.213Z,6.10
2023-04-05T05:21:10.487Z,6.10
2023-04-05T05:27:12.946Z,6.20
2023-04-05T05:33:15.264Z,6.20
2023-04-05T05:39:18.177Z,6.30
2023-04-05T05:45:20.411Z,6.30
2023-04-05T05:51:22.829Z,6.30
2023-04-05T05:57:25.364Z,6.30
2023-04-05T06:03:30.338Z,6.40
2023-04-05T06:09:35.732Z,6.50
2023-04-05T06:15:38.232Z,6.40
2023-04-05T06:21:40.705Z,6.50
2023-04-05T06:27:43.164Z,6.80
2023-04-05T06:33:45.637Z,7.00
2023-04-05T06:39:47.836Z,7.00
2023-04-05T06:45:50.262Z,7.10
2023-04-05T06:51:52.770Z,7.30
2023-04-05T06:57:55.206Z,7.40
2023-04-05T07:03:57.821Z,7.30
2023-04-05T07:09:59.985Z,7.50
2023-04-05T07:16:04.081Z,7.60
2023-04-05T07:22:06.782Z,8.10
2023-04-05T07:28:09.011Z,8.60
2023-04-05T07:34:11.526Z,8.00
2023-04-05T07:40:14.203Z,7.70
2023-04-05T07:46:20.223Z,7.50
2023-04-05T07:52:22.769Z,7.60
2023-04-05T07:58:26.240Z,7.40
2023-04-05T08:04:28.747Z,7.40
2023-04-05T08:10:31.476Z,7.30
2023-04-05T08:16:34.253Z,7.30
2023-04-05T08:22:36.867Z,7.80
2023-04-05T08:28:39.087Z,7.90
2023-04-05T08:34:41.593Z,7.90
2023-04-05T08:40:48.025Z,7.90
2023-04-05T08:46:51.473Z,7.90
2023-04-05T08:52:54.102Z,7.80
2023-04-05T08:59:06.474Z,7.90
2023-04-05T09:05:11.579Z,7.80
2023-04-05T09:11:14.835Z,7.90
2023-04-05T09:17:20.591Z,7.90
2023-04-05T09:23:23.054Z,8.10
2023-04-05T09:29:31.651Z,8.90
2023-04-05T09:35:37.258Z,10.10
2023-04-05T09:41:39.941Z,10.60
2023-04-05T09:47:42.659Z,11.70
2023-04-05T09:53:59.216Z,13.10
2023-04-05T10:00:01.779Z,12.00
2023-04-05T10:06:04.337Z,12.00
2023-04-05T10:12:08.611Z,12.40
2023-04-05T10:18:21.214Z,11.90
2023-04-05T10:24:23.422Z,11.10
2023-04-05T10:30:33.139Z,10.70
2023-04-05T10:36:58.302Z,10.60
2023-04-05T10:43:01.545Z,10.70
2023-04-05T10:49:12.952Z,10.90
2023-04-05T10:55:17.112Z,11.80
2023-04-05T11:01:21.858Z,11.70
2023-04-05T11:07:24.403Z,11.40
2023-04-05T11:13:53.420Z,11.40
2023-04-05T11:20:04.233Z,12.00
2023-04-05T11:26:07.307Z,12.10
2023-04-05T11:32:13.208Z,12.00
2023-04-05T11:38:22.825Z,11.60
2023-04-05T11:44:25.726Z,11.50
2023-04-05T11:50:28.843Z,12.30
2023-04-05T11:56:31.222Z,12.40
2023-04-05T12:02:35.821Z,12.40
2023-04-05T12:08:51.862Z,12.70
2023-04-05T12:14:59.926Z,12.40
2023-04-05T12:21:06.970Z,12.20
2023-04-05T12:27:09.977Z,12.10
2023-04-05T12:33:12.639Z,11.80
2023-04-05T12:39:16.310Z,11.60
2023-04-05T12:45:19.143Z,11.10
2023-04-05T12:51:21.530Z,10.90
2023-04-05T12:57:33.266Z,10.80
2023-04-05T13:03:36.650Z,10.90
2023-04-05T13:09:39.894Z,11.20
2023-04-05T13:15:42.712Z,11.60
2023-04-05T13:21:45.672Z,11.90
2023-04-05T13:27:48.224Z,12.00
2023-04-05T13:33:50.677Z,12.00
2023-04-05T13:39:52.986Z,11.90
2023-04-05T13:45:55.373Z,11.60
2023-04-05T13:51:57.678Z,11.30
2023-04-05T13:58:00.278Z,11.20
2023-04-05T14:04:02.690Z,10.90
2023-04-05T14:10:07.037Z,10.80
2023-04-05T14:16:09.480Z,10.90
2023-04-05T14:22:11.900Z,11.10
2023-04-05T14:28:14.275Z,11.10
2023-04-05T14:34:17.033Z,11.40
2023-04-05T14:40:19.521Z,11.20
2023-04-05T14:46:22.244Z,11.00
2023-04-05T14:52:24.792Z,10.60
2023-04-05T14:58:29.218Z,10.40
2023-04-05T15:04:32.117Z,10.40
2023-04-05T15:10:34.563Z,10.40
2023-04-05T15:16:36.835Z,10.40
2023-04-05T15:22:41.378Z,10.40
2023-04-05T15:28:43.896Z,10.20
2023-04-05T15:34:46.619Z,10.10
2023-04-05T15:40:52.756Z,10.10
2023-04-05T15:46:55.039Z,9.90
2023-04-05T15:52:57.746Z,9.60
2023-04-05T15:59:00.407Z,9.40
2023-04-05T16:05:02.972Z,9.20
2023-04-05T16:11:05.711Z,9.30
2023-04-05T16:17:08.221Z,9.10
2023-04-05T16:23:10.989Z,9.10
2023-04-05T16:29:13.352Z,9.00
2023-04-05T16:35:16.194Z,8.90
2023-04-05T16:41:18.663Z,9.00
2023-04-05T16:47:21.170Z,8.80
2023-04-05T16:53:23.557Z,8.60
2023-04-05T16:59:26.493Z,8.60
2023-04-05T17:05:29.788Z,8.40
2023-04-05T17:11:32.112Z,8.30
2023-04-05T17:17:34.487Z,8.20
2023-04-05T17:23:36.704Z,8.20
2023-04-05T17:29:39.586Z,8.10
2023-04-05T17:35:42.116Z,8.10
2023-04-05T17:41:46.665Z,8.00
2023-04-05T17:47:49.244Z,7.90
2023-04-05T17:53:51.577Z,7.80
2023-04-05T17:59:54.117Z,7.80
2023-04-05T18:05:56.628Z,7.80
2023-04-05T18:11:59.671Z,7.70
2023-04-05T18:18:02.694Z,7.70
2023-04-05T18:24:05.478Z,7.60
2023-04-05T18:30:07.881Z,7.60
2023-04-05T18:36:10.418Z,7.50
2023-04-05T18:42:13.320Z,7.50
2023-04-05T18:48:15.806Z,7.40
2023-04-05T18:54:18.873Z,7.30
2023-04-05T19:00:25.647Z,7.10
2023-04-05T19:06:28.374Z,7.10
2023-04-05T19:12:30.877Z,7.10
2023-04-05T19:18:33.584Z,7.00
2023-04-05T19:24:35.699Z,6.90
2023-04-05T19:30:41.033Z,6.80
2023-04-05T19:36:43.593Z,6.80
2023-04-05T19:42:47.922Z,6.70
2023-04-05T19:48:50.457Z,6.60
2023-04-05T19:54:53.009Z,6.60
2023-04-05T20:00:55.898Z,6.50
2023-04-05T20:06:58.311Z,6.40
2023-04-05T20:13:00.865Z,6.30
2023-04-05T20:19:07.676Z,6.40
2023-04-05T20:25:43.769Z,6.20
2023-04-05T20:31:46.524Z,6.20
2023-04-05T20:37:50.033Z,6.20
2023-04-05T20:43:52.618Z,6.10
2023-04-05T20:49:55.093Z,6.10
2023-04-05T20:55:57.668Z,6.00
2023-04-05T21:01:59.904Z,5.90
2023-04-05T21:08:02.361Z,5.90
2023-04-05T21:14:04.990Z,5.80
2023-04-05T21:20:07.754Z,5.60
2023-04-05T21:26:10.268Z,5.50
2023-04-05T21:32:12.519Z,5.50
2023-04-05T21:38:15.933Z,5.30
2023-04-05T21:44:18.394Z,5.40
2023-04-05T21:50:21.553Z,5.40
2023-04-05T21:56:24.006Z,5.30
2023-04-05T22:02:26.647Z,5.30
2023-04-05T22:08:29.388Z,5.20
2023-04-05T22:14:31.966Z,5.30
2023-04-05T22:20:34.819Z,5.20
2023-04-05T22:26:38.710Z,5.20
2023-04-05T22:32:41.360Z,5.20
2023-04-05T22:38:43.705Z,5.10
2023-04-05T22:44:46.180Z,5.10
2023-04-05T22:50:48.570Z,5.00
2023-04-05T22:56:51.384Z,5.00
2023-04-05T23:02:53.753Z,5.00
2023-04-05T23:08:56.503Z,5.00
2023-04-05T23:14:58.817Z,4.80
2023-04-05T23:21:01.404Z,4.80
2023-04-05T23:27:03.808Z,4.90
2023-04-05T23:33:06.382Z,4.80
2023-04-05T23:39:08.872Z,4.80
2023-04-05T23:45:11.751Z,4.70
2023-04-05T23:51:13.873Z,4.60
2023-04-05T23:57:16.106Z,4.60
